createdAt,value
2023-05-17T00:00:06.958Z,91.85
2023-05-17T00:02:34.628Z,91.90
2023-05-17T00:05:03.862Z,91.50
2023-05-17T00:07:31.514Z,91.70
2023-05-17T00:10:00.219Z,91.68
2023-05-17T00:12:27.892Z,92.73
2023-05-17T00:14:55.472Z,91.98
2023-05-17T00:17:23.065Z,92.79
2023-05-17T00:19:51.108Z,92.43
2023-05-17T00:22:20.085Z,92.30
2023-05-17T00:24:47.665Z,92.00
2023-05-17T00:27:15.248Z,92.33
2023-05-17T00:29:43.302Z,92.05
2023-05-17T00:32:12.205Z,92.46
2023-05-17T00:34:39.899Z,93.21
2023-05-17T00:37:07.940Z,93.40
2023-05-17T00:39:36.911Z,93.54
2023-05-17T00:42:05.726Z,93.28
2023-05-17T00:44:33.256Z,94.09
2023-05-17T00:47:00.883Z,94.20
2023-05-17T00:49:28.489Z,94.17
2023-05-17T00:51:56.654Z,94.02
2023-05-17T00:54:24.600Z,93.73
2023-05-17T00:56:53.786Z,93.53
2023-05-17T00:59:22.303Z,94.35
2023-05-17T01:01:51.526Z,94.72
2023-05-17T01:04:19.715Z,93.89
2023-05-17T01:06:47.402Z,94.75
2023-05-17T01:09:15.078Z,94.05
2023-05-17T01:11:49.587Z,94.38
2023-05-17T01:14:33.333Z,94.00
2023-05-17T01:17:02.458Z,95.04
2023-05-17T01:19:51.008Z,95.10
2023-05-17T01:22:28.404Z,94.43
2023-05-17T01:25:12.058Z,95.39
2023-05-17T01:27:44.450Z,95.67
2023-05-17T01:30:15.442Z,95.40
2023-05-17T01:32:44.908Z,95.44
2023-05-17T01:35:13.102Z,95.58
2023-05-17T01:37:40.852Z,95.82
2023-05-17T01:40:10.352Z,95.92
2023-05-17T01:42:42.588Z,95.26
2023-05-17T01:45:17.533Z,96.02
2023-05-17T01:47:54.213Z,95.56
2023-05-17T01:50:25.237Z,95.29
2023-05-17T01:52:55.126Z,95.25
2023-05-17T01:55:32.169Z,96.16
2023-05-17T01:58:05.126Z,95.73
2023-05-17T02:00:33.482Z,95.83
2023-05-17T02:03:01.172Z,96.23
2023-05-17T02:05:28.813Z,95.44
2023-05-17T02:07:56.685Z,95.36
2023-05-17T02:10:24.391Z,95.81
2023-05-17T02:12:51.940Z,95.60
2023-05-17T02:15:22.408Z,96.22
2023-05-17T02:17:50.130Z,96.13
2023-05-17T02:20:17.878Z,96.11
2023-05-17T02:22:45.929Z,96.58
2023-05-17T02:25:13.579Z,95.67
2023-05-17T02:27:41.209Z,95.68
2023-05-17T02:30:09.703Z,94.90
2023-05-17T02:32:38.752Z,94.78
2023-05-17T02:35:08.340Z,95.30
2023-05-17T02:37:36.459Z,94.97
2023-05-17T02:40:08.543Z,95.68
2023-05-17T02:42:36.340Z,94.73
2023-05-17T02:45:04.288Z,95.52
2023-05-17T02:47:32.093Z,95.26
2023-05-17T02:50:01.158Z,96.13
2023-05-17T02:52:28.990Z,95.96
2023-05-17T02:54:56.801Z,96.12
2023-05-17T02:57:24.470Z,96.00
2023-05-17T02:59:52.176Z,95.56
2023-05-17T03:02:20.937Z,96.12
2023-05-17T03:04:50.750Z,95.28
2023-05-17T03:07:20.220Z,95.42
2023-05-17T03:09:47.873Z,95.85
2023-05-17T03:12:15.896Z,95.58
2023-05-17T03:14:43.522Z,95.87
2023-05-17T03:17:12.092Z,94.76
2023-05-17T03:19:41.015Z,96.33
2023-05-17T03:22:08.837Z,95.61
2023-05-17T03:24:37.955Z,96.16
2023-05-17T03:27:06.495Z,96.06
2023-05-17T03:29:35.692Z,97.42
2023-05-17T03:32:04.394Z,96.43
2023-05-17T03:34:32.573Z,96.33
2023-05-17T03:37:02.031Z,96.63
2023-05-17T03:39:30.160Z,95.82
2023-05-17T03:41:59.637Z,96.50
2023-05-17T03:44:29.204Z,95.96
2023-05-17T03:46:57.902Z,96.82
2023-05-17T03:49:25.772Z,96.11
2023-05-17T03:51:54.367Z,96.16
2023-05-17T03:54:22.035Z,95.89
2023-05-17T03:56:50.336Z,96.05
2023-05-17T03:59:20.542Z,95.95
2023-05-17T04:01:48.408Z,96.40
2023-05-17T04:04:16.146Z,96.35
2023-05-17T04:06:43.833Z,96.12
2023-05-17T04:09:13.784Z,95.54
2023-05-17T04:11:41.706Z,96.01
2023-05-17T04:14:09.340Z,96.49
2023-05-17T04:16:38.325Z,95.91
2023-05-17T04:19:06.183Z,95.72
2023-05-17T04:21:33.970Z,95.57
2023-05-17T04:24:02.306Z,96.34
2023-05-17T04:26:30.611Z,95.02
2023-05-17T04:28:58.884Z,95.40
2023-05-17T04:31:26.467Z,95.64
2023-05-17T04:33:55.580Z,95.27
2023-05-17T04:36:23.532Z,94.98
2023-05-17T04:38:51.863Z,96.00
2023-05-17T04:41:24.114Z,95.69
2023-05-17T04:43:51.774Z,94.95
2023-05-17T04:46:26.689Z,95.71
2023-05-17T04:48:57.195Z,94.85
2023-05-17T04:51:26.964Z,94.76
2023-05-17T04:53:54.832Z,94.92
2023-05-17T04:56:22.609Z,94.95
2023-05-17T04:58:52.773Z,96.03
2023-05-17T05:01:20.854Z,94.92
2023-05-17T05:03:49.028Z,94.90
2023-05-17T05:06:18.083Z,94.49
2023-05-17T05:08:45.757Z,94.05
2023-05-17T05:11:14.192Z,94.13
2023-05-17T05:13:42.394Z,94.75
2023-05-17T05:16:10.171Z,94.48
2023-05-17T05:18:38.758Z,94.42
2023-05-17T05:21:06.843Z,94.32
2023-05-17T05:23:35.945Z,94.80
2023-05-17T05:26:03.746Z,94.18
2023-05-17T05:28:31.434Z,93.90
2023-05-17T05:31:00.668Z,93.53
2023-05-17T05:33:34.499Z,93.02
2023-05-17T05:36:02.976Z,92.95
2023-05-17T05:38:30.783Z,92.73
2023-05-17T05:41:00.018Z,92.15
2023-05-17T05:43:27.799Z,91.27
2023-05-17T05:45:55.612Z,90.95
2023-05-17T05:48:23.495Z,90.52
2023-05-17T05:50:51.430Z,90.14
2023-05-17T05:53:19.913Z,89.52
2023-05-17T05:55:52.109Z,88.64
2023-05-17T05:58:22.261Z,88.25
2023-05-17T06:00:50.751Z,87.39
2023-05-17T06:03:18.459Z,87.42
2023-05-17T06:05:46.145Z,86.45
2023-05-17T06:08:13.871Z,86.42
2023-05-17T06:10:41.536Z,86.33
2023-05-17T06:13:10.649Z,85.73
2023-05-17T06:15:39.704Z,85.81
2023-05-17T06:18:07.505Z,85.72
2023-05-17T06:20:35.132Z,85.10
2023-05-17T06:23:05.100Z,85.25
2023-05-17T06:25:33.025Z,85.88
2023-05-17T06:28:02.608Z,84.98
2023-05-17T06:30:30.568Z,84.77
2023-05-17T06:33:00.096Z,83.57
2023-05-17T06:35:28.089Z,84.04
2023-05-17T06:37:56.779Z,84.97
2023-05-17T06:40:24.494Z,84.18
2023-05-17T06:42:52.145Z,82.37
2023-05-17T06:45:19.800Z,81.79
2023-05-17T06:47:47.465Z,82.51
2023-05-17T06:50:16.621Z,79.35
2023-05-17T06:52:44.300Z,77.69
2023-05-17T06:55:11.951Z,74.92
2023-05-17T06:57:39.615Z,72.46
2023-05-17T07:00:10.947Z,72.16
2023-05-17T07:02:38.684Z,70.65
2023-05-17T07:05:07.382Z,71.29
2023-05-17T07:07:36.426Z,70.16
2023-05-17T07:10:04.324Z,72.39
2023-05-17T07:12:31.980Z,71.79
2023-05-17T07:14:59.578Z,69.51
2023-05-17T07:17:27.280Z,69.36
2023-05-17T07:19:55.038Z,69.32
2023-05-17T07:22:25.699Z,68.42
2023-05-17T07:24:54.723Z,68.28
2023-05-17T07:27:22.421Z,68.69
2023-05-17T07:29:50.189Z,67.55
2023-05-17T07:32:18.070Z,68.22
2023-05-17T07:34:49.073Z,67.17
2023-05-17T07:37:16.736Z,65.57
2023-05-17T07:39:44.348Z,66.39
2023-05-17T07:42:14.579Z,67.02
2023-05-17T07:44:42.304Z,66.61
2023-05-17T07:47:09.945Z,66.83
2023-05-17T07:49:37.564Z,65.00
2023-05-17T07:52:05.666Z,64.89
2023-05-17T07:54:33.285Z,63.39
2023-05-17T07:57:01.026Z,64.67
2023-05-17T07:59:30.007Z,63.34
2023-05-17T08:01:57.979Z,61.46
2023-05-17T08:04:25.629Z,61.05
2023-05-17T08:06:53.309Z,61.62
2023-05-17T08:09:20.949Z,60.50
2023-05-17T08:11:48.569Z,60.26
2023-05-17T08:14:17.321Z,58.64
2023-05-17T08:16:47.101Z,58.30
2023-05-17T08:19:16.405Z,59.40
2023-05-17T08:21:46.185Z,58.25
2023-05-17T08:24:13.856Z,58.27
2023-05-17T08:26:41.935Z,58.42
2023-05-17T08:29:09.733Z,57.00
2023-05-17T08:31:37.411Z,56.72
2023-05-17T08:34:06.506Z,56.13
2023-05-17T08:36:34.381Z,56.13
2023-05-17T08:39:02.097Z,58.17
2023-05-17T08:41:30.154Z,55.67
2023-05-17T08:43:59.943Z,55.07
2023-05-17T08:46:28.692Z,54.10
2023-05-17T08:48:59.967Z,54.56
2023-05-17T08:51:29.846Z,56.33
2023-05-17T08:53:57.616Z,56.01
2023-05-17T08:56:28.294Z,55.86
2023-05-17T08:58:58.205Z,55.31
2023-05-17T09:01:28.380Z,53.99
2023-05-17T09:03:57.376Z,51.58
2023-05-17T09:06:25.532Z,50.22
2023-05-17T09:08:55.700Z,50.95
2023-05-17T09:11:27.888Z,51.00
2023-05-17T09:13:58.976Z,52.73
2023-05-17T09:16:29.107Z,51.50
2023-05-17T09:18:58.176Z,50.47
2023-05-17T09:21:28.216Z,50.99
2023-05-17T09:24:06.459Z,52.12
2023-05-17T09:26:40.210Z,52.37
2023-05-17T09:29:12.108Z,53.07
2023-05-17T09:31:40.201Z,53.33
2023-05-17T09:34:09.013Z,54.71
2023-05-17T09:36:38.699Z,54.81
2023-05-17T09:39:11.984Z,54.71
2023-05-17T09:41:43.247Z,54.20
2023-05-17T09:44:12.140Z,54.03
2023-05-17T09:46:43.073Z,52.69
2023-05-17T09:49:10.736Z,52.37
2023-05-17T09:51:42.314Z,52.59
2023-05-17T09:54:11.901Z,50.95
2023-05-17T09:56:40.043Z,50.83
2023-05-17T10:03:28.277Z,51.95
2023-05-17T10:05:56.165Z,52.00
2023-05-17T10:08:25.979Z,50.17
2023-05-17T10:10:57.174Z,51.01
2023-05-17T10:13:31.469Z,52.14
2023-05-17T10:16:01.554Z,53.29
2023-05-17T10:18:31.043Z,53.68
2023-05-17T10:21:00.462Z,53.07
2023-05-17T10:23:28.754Z,52.55
2023-05-17T10:25:57.739Z,53.85
2023-05-17T10:28:28.395Z,53.82
2023-05-17T10:30:58.487Z,52.96
2023-05-17T10:33:28.364Z,53.37
2023-05-17T10:35:57.260Z,53.34
2023-05-17T10:38:31.996Z,52.79
2023-05-17T10:41:05.383Z,52.30
2023-05-17T10:43:34.192Z,51.12
2023-05-17T10:46:04.350Z,50.45
2023-05-17T10:48:32.168Z,50.75
2023-05-17T10:51:07.735Z,49.86
2023-05-17T10:53:36.344Z,49.71
2023-05-17T10:56:05.639Z,48.83
2023-05-17T10:58:33.315Z,49.39
2023-05-17T11:01:01.029Z,49.70
2023-05-17T11:03:30.247Z,49.85
2023-05-17T11:06:24.741Z,49.86
2023-05-17T11:09:09.879Z,49.01
2023-05-17T11:11:38.976Z,48.94
2023-05-17T11:14:08.706Z,48.44
2023-05-17T11:16:37.980Z,48.81
2023-05-17T11:19:10.526Z,47.88
2023-05-17T11:21:46.707Z,47.56
2023-05-17T11:24:22.061Z,48.95
2023-05-17T11:26:51.507Z,47.17
2023-05-17T11:29:19.201Z,48.17
2023-05-17T11:31:52.118Z,48.05
2023-05-17T11:34:19.978Z,48.43
2023-05-17T11:36:52.906Z,45.65
2023-05-17T11:39:22.578Z,46.62
2023-05-17T11:41:53.052Z,47.28
2023-05-17T11:44:30.684Z,47.30
2023-05-17T11:47:03.292Z,46.62
2023-05-17T11:49:36.315Z,47.25
2023-05-17T11:52:06.086Z,46.71
2023-05-17T11:54:34.759Z,47.03
2023-05-17T11:57:05.115Z,46.78
2023-05-17T11:59:39.752Z,46.18
2023-05-17T12:02:07.581Z,45.33
2023-05-17T12:04:38.540Z,44.27
2023-05-17T12:07:09.606Z,45.15
2023-05-17T12:09:37.835Z,45.12
2023-05-17T12:12:07.593Z,46.86
2023-05-17T12:14:35.739Z,45.49
2023-05-17T12:17:07.930Z,44.47
2023-05-17T12:19:35.992Z,44.67
2023-05-17T12:22:08.149Z,43.07
2023-05-17T12:24:39.499Z,43.68
2023-05-17T12:27:08.790Z,44.88
2023-05-17T12:29:36.342Z,45.87
2023-05-17T12:32:05.145Z,45.51
2023-05-17T12:34:33.132Z,44.44
2023-05-17T12:37:01.068Z,43.90
2023-05-17T12:39:28.838Z,44.55
2023-05-17T12:41:57.209Z,44.30
2023-05-17T12:44:26.432Z,44.49
2023-05-17T12:46:56.199Z,43.51
2023-05-17T12:49:24.336Z,49.21
2023-05-17T12:51:52.010Z,45.07
2023-05-17T12:54:29.781Z,49.11
2023-05-17T12:56:57.613Z,48.01
2023-05-17T12:59:28.642Z,44.94
2023-05-17T13:01:57.876Z,44.49
2023-05-17T13:04:31.662Z,42.22
2023-05-17T13:07:00.879Z,42.43
2023-05-17T13:09:30.699Z,41.76
2023-05-17T13:11:59.913Z,42.74
2023-05-17T13:14:41.208Z,40.89
2023-05-17T13:17:12.022Z,38.36
2023-05-17T13:19:40.268Z,40.02
2023-05-17T13:22:08.633Z,40.19
2023-05-17T13:24:37.790Z,41.12
2023-05-17T13:27:06.628Z,39.85
2023-05-17T13:29:40.125Z,40.51
2023-05-17T13:32:11.476Z,39.24
2023-05-17T13:34:39.802Z,38.46
2023-05-17T13:37:11.474Z,37.70
2023-05-17T13:39:40.140Z,37.99
2023-05-17T13:42:07.943Z,38.28
2023-05-17T13:44:35.635Z,37.86
2023-05-17T13:47:06.972Z,37.66
2023-05-17T13:49:36.181Z,39.03
2023-05-17T13:52:08.373Z,37.80
2023-05-17T13:54:36.301Z,37.64
2023-05-17T13:57:04.132Z,38.04
2023-05-17T13:59:31.888Z,37.37
2023-05-17T14:01:59.517Z,39.40
2023-05-17T14:04:27.133Z,36.97
2023-05-17T14:06:56.301Z,34.98
2023-05-17T14:09:23.870Z,33.99
2023-05-17T14:11:51.541Z,35.60
2023-05-17T14:14:19.217Z,36.64
2023-05-17T14:16:46.762Z,35.60
2023-05-17T14:19:14.401Z,34.82
2023-05-17T14:21:42.014Z,29.19
2023-05-17T14:24:10.925Z,26.52
2023-05-17T14:26:38.635Z,24.71
2023-05-17T14:29:06.671Z,22.28
2023-05-17T14:31:34.292Z,21.00
2023-05-17T14:34:03.693Z,22.85
2023-05-17T14:36:31.736Z,21.03
2023-05-17T14:39:00.217Z,20.92
2023-05-17T14:41:29.193Z,20.42
2023-05-17T14:43:56.791Z,20.30
2023-05-17T14:46:24.632Z,24.05
2023-05-17T14:48:52.459Z,24.40
2023-05-17T14:51:20.284Z,25.09
2023-05-17T14:53:47.932Z,24.92
2023-05-17T14:56:16.704Z,26.44
2023-05-17T14:58:45.651Z,25.24
2023-05-17T15:01:13.456Z,22.15
2023-05-17T15:03:41.252Z,20.84
2023-05-17T15:06:11.645Z,17.88
2023-05-17T15:08:39.761Z,16.98
2023-05-17T15:11:07.425Z,16.23
2023-05-17T15:13:35.012Z,14.37
2023-05-17T15:16:04.411Z,13.62
2023-05-17T15:18:32.976Z,13.44
2023-05-17T15:21:00.749Z,12.94
2023-05-17T15:23:28.494Z,14.40
2023-05-17T15:25:56.217Z,13.15
2023-05-17T15:28:23.906Z,12.51
2023-05-17T15:31:01.003Z,12.46
2023-05-17T15:33:30.937Z,11.06
2023-05-17T15:35:58.895Z,12.27
2023-05-17T15:38:26.945Z,12.64
2023-05-17T15:41:03.779Z,13.36
2023-05-17T15:43:31.967Z,14.45
2023-05-17T15:45:59.598Z,14.91
2023-05-17T15:48:29.100Z,17.34
2023-05-17T15:50:58.813Z,18.16
2023-05-17T15:53:27.842Z,19.20
2023-05-17T15:55:55.833Z,20.10
2023-05-17T15:58:27.683Z,20.33
2023-05-17T16:00:55.774Z,21.53
2023-05-17T16:03:23.409Z,21.00
2023-05-17T16:05:51.468Z,20.82
2023-05-17T16:08:20.514Z,20.76
2023-05-17T16:10:48.261Z,18.52
2023-05-17T16:13:16.177Z,18.34
2023-05-17T16:15:43.802Z,17.58
2023-05-17T16:18:13.696Z,16.06
2023-05-17T16:20:41.530Z,17.15
2023-05-17T16:23:09.121Z,16.38
2023-05-17T16:25:38.127Z,15.98
2023-05-17T16:28:05.787Z,15.78
2023-05-17T16:30:33.366Z,16.06
2023-05-17T16:33:01.128Z,16.34
2023-05-17T16:35:29.185Z,16.15
2023-05-17T16:37:56.909Z,16.45
2023-05-17T16:40:24.455Z,16.57
2023-05-17T16:42:53.363Z,16.63
2023-05-17T16:45:21.190Z,16.48
2023-05-17T16:47:48.826Z,17.18
2023-05-17T16:50:16.856Z,15.05
2023-05-17T16:52:45.309Z,14.89
2023-05-17T16:55:13.026Z,13.57
2023-05-17T16:57:41.903Z,13.55
2023-05-17T17:00:12.719Z,13.32
2023-05-17T17:02:40.391Z,13.97
2023-05-17T17:05:10.161Z,15.28
2023-05-17T17:07:37.886Z,14.40
2023-05-17T17:10:06.278Z,14.57
2023-05-17T17:12:33.901Z,14.83
2023-05-17T17:15:02.190Z,15.84
2023-05-17T17:17:31.807Z,16.47
2023-05-17T17:19:59.502Z,16.29
2023-05-17T17:22:27.216Z,15.77
2023-05-17T17:24:54.939Z,16.69
2023-05-17T17:27:22.519Z,18.46
2023-05-17T17:29:50.101Z,18.55
2023-05-17T17:32:17.720Z,18.61
2023-05-17T17:34:46.702Z,18.39
2023-05-17T17:37:14.294Z,17.17
2023-05-17T17:39:42.203Z,16.94
2023-05-17T17:42:10.763Z,17.61
2023-05-17T17:44:38.412Z,19.08
2023-05-17T17:47:06.393Z,18.16
2023-05-17T17:49:35.837Z,18.95
2023-05-17T17:52:04.922Z,21.34
2023-05-17T17:54:32.558Z,22.70
2023-05-17T17:57:00.203Z,23.45
2023-05-17T17:59:27.813Z,26.29
2023-05-17T18:01:55.501Z,26.89
2023-05-17T18:04:23.251Z,28.22
2023-05-17T18:06:50.878Z,28.11
2023-05-17T18:09:19.973Z,29.94
2023-05-17T18:11:47.750Z,31.30
2023-05-17T18:14:15.612Z,34.60
2023-05-17T18:16:43.306Z,36.03
2023-05-17T18:19:11.063Z,37.46
2023-05-17T18:21:38.702Z,39.10
2023-05-17T18:24:06.871Z,40.64
2023-05-17T18:26:36.000Z,41.49
2023-05-17T18:29:03.935Z,43.00
2023-05-17T18:31:31.754Z,43.75
2023-05-17T18:33:59.366Z,45.36
2023-05-17T18:36:27.623Z,46.66
2023-05-17T18:38:58.466Z,47.82
2023-05-17T18:41:26.224Z,48.88
2023-05-17T18:43:55.823Z,50.49
2023-05-17T18:46:23.493Z,51.83
2023-05-17T18:48:52.567Z,52.71
2023-05-17T18:51:20.219Z,53.52
2023-05-17T18:53:47.847Z,54.80
2023-05-17T18:56:22.377Z,55.40
2023-05-17T18:58:51.771Z,55.28
2023-05-17T19:01:21.577Z,56.07
2023-05-17T19:03:51.356Z,57.21
2023-05-17T19:06:19.507Z,57.91
2023-05-17T19:08:47.132Z,59.04
2023-05-17T19:11:14.804Z,58.93
2023-05-17T19:13:42.692Z,60.77
2023-05-17T19:16:10.462Z,61.02
2023-05-17T19:18:39.470Z,61.66
2023-05-17T19:21:07.401Z,62.01
2023-05-17T19:23:35.942Z,62.96
2023-05-17T19:26:03.986Z,63.06
2023-05-17T19:28:32.951Z,62.65
2023-05-17T19:31:00.792Z,64.30
2023-05-17T19:33:28.364Z,63.51
2023-05-17T19:35:57.274Z,65.12
2023-05-17T19:38:24.815Z,65.09
2023-05-17T19:40:52.549Z,65.64
2023-05-17T19:43:20.229Z,66.68
2023-05-17T19:45:47.904Z,68.20
2023-05-17T19:48:15.489Z,67.87
2023-05-17T19:50:43.112Z,68.86
2023-05-17T19:53:12.047Z,69.10
2023-05-17T19:55:40.942Z,70.11
2023-05-17T19:58:08.571Z,69.97
2023-05-17T20:00:37.484Z,70.80
2023-05-17T20:03:06.135Z,70.33
2023-05-17T20:05:34.100Z,71.74
2023-05-17T20:08:02.505Z,73.04
2023-05-17T20:10:32.165Z,72.56
2023-05-17T20:12:59.805Z,72.61
2023-05-17T20:15:27.457Z,73.55
2023-05-17T20:17:55.215Z,73.31
2023-05-17T20:20:23.406Z,73.69
2023-05-17T20:22:51.005Z,74.22
2023-05-17T20:25:18.627Z,73.98
2023-05-17T20:27:47.548Z,73.91
2023-05-17T20:30:15.217Z,74.01
2023-05-17T20:32:42.918Z,75.43
2023-05-17T20:35:12.170Z,76.27
2023-05-17T20:37:39.858Z,76.29
2023-05-17T20:40:09.093Z,76.59
2023-05-17T20:42:38.091Z,77.18
2023-05-17T20:45:08.796Z,76.68
2023-05-17T20:47:36.681Z,77.50
2023-05-17T20:50:04.866Z,77.68
2023-05-17T20:52:39.356Z,78.46
2023-05-17T20:55:08.875Z,77.99
2023-05-17T20:57:36.592Z,78.26
2023-05-17T21:00:06.125Z,78.63
2023-05-17T21:02:35.112Z,79.34
2023-05-17T21:05:03.260Z,79.76
2023-05-17T21:07:30.868Z,79.40
2023-05-17T21:09:58.587Z,79.45
2023-05-17T21:12:26.370Z,80.38
2023-05-17T21:15:07.880Z,80.53
2023-05-17T21:17:42.957Z,80.18
2023-05-17T21:20:11.642Z,81.15
2023-05-17T21:22:39.273Z,80.73
2023-05-17T21:25:07.875Z,81.33
2023-05-17T21:27:35.655Z,81.05
2023-05-17T21:30:03.422Z,82.05
2023-05-17T21:32:31.066Z,81.89
2023-05-17T21:35:00.024Z,82.08
2023-05-17T21:37:27.698Z,81.83
2023-05-17T21:39:55.339Z,82.31
2023-05-17T21:42:22.968Z,82.85
2023-05-17T21:44:50.644Z,83.62
2023-05-17T21:47:18.252Z,82.97
2023-05-17T21:49:45.829Z,82.92
2023-05-17T21:52:14.800Z,83.77
2023-05-17T21:54:42.521Z,83.80
2023-05-17T21:57:10.208Z,84.08
2023-05-17T21:59:37.844Z,84.10
2023-05-17T22:02:06.714Z,84.81
2023-05-17T22:04:34.340Z,84.90
2023-05-17T22:07:01.955Z,84.58
2023-05-17T22:09:30.963Z,85.21
2023-05-17T22:11:59.600Z,85.65
2023-05-17T22:14:33.053Z,85.91
2023-05-17T22:17:00.784Z,86.63
2023-05-17T22:19:30.196Z,86.01
2023-05-17T22:21:58.115Z,86.26
2023-05-17T22:24:25.792Z,86.56
2023-05-17T22:26:55.046Z,86.70
2023-05-17T22:29:22.730Z,86.63
2023-05-17T22:31:53.098Z,86.65
2023-05-17T22:34:21.774Z,87.13
2023-05-17T22:36:49.439Z,86.58
2023-05-17T22:39:16.998Z,86.19
2023-05-17T22:41:44.663Z,86.73
2023-05-17T22:44:13.559Z,86.53
2023-05-17T22:46:41.946Z,86.39
2023-05-17T22:49:09.679Z,85.95
2023-05-17T22:51:38.811Z,85.81
2023-05-17T22:54:06.825Z,86.21
2023-05-17T22:56:34.430Z,85.97
2023-05-17T22:59:01.992Z,86.25
2023-05-17T23:01:31.056Z,86.42
2023-05-17T23:03:58.798Z,87.10
2023-05-17T23:06:26.425Z,87.34
2023-05-17T23:08:53.999Z,87.38
2023-05-17T23:11:21.578Z,87.51
2023-05-17T23:13:49.131Z,88.33
2023-05-17T23:16:16.709Z,88.74
2023-05-17T23:18:46.293Z,88.67
2023-05-17T23:21:14.021Z,89.39
2023-05-17T23:23:41.656Z,90.08
2023-05-17T23:26:09.250Z,89.23
2023-05-17T23:28:37.685Z,89.80
2023-05-17T23:31:05.702Z,89.83
2023-05-17T23:33:33.355Z,89.54
2023-05-17T23:36:02.307Z,90.63
2023-05-17T23:38:29.955Z,90.59
2023-05-17T23:40:58.171Z,89.90
2023-05-17T23:43:26.208Z,90.41
2023-05-17T23:45:53.869Z,90.18
2023-05-17T23:48:25.526Z,90.00
2023-05-17T23:50:53.305Z,90.01
2023-05-17T23:53:23.486Z,90.09
2023-05-17T23:55:51.160Z,90.35
2023-05-17T23:58:18.772Z,90.52
